Terminal Aerodrome Forecast
Issued by NWS Sterling, VA

Current Version | Previous Version | Graphics & Text | Print | Product List | Glossary On
Versions: 1 2 3 4 5 6 7 8 9 10 11 12 13 14 15 16 17 18 19 20 21 22 23 24 25 26
000
FTUS41 KLWX 201738
TAFDCA
TAF
KDCA 201738Z 2018/2118 32011KT P6SM FEW250
     FM202300 33007KT P6SM SCT250
     FM210400 VRB03KT P6SM BKN250
     FM211000 07005KT P6SM -SHRA BKN050
     FM211300 08007KT P6SM -SHRA BKN025
     FM211400 06006KT P6SM -SHRA BKN015
     FM211600 04007KT P6SM BKN015=

USA.gov is the U.S. government's official web portal to all federal, state and local government web resources and services.